sensor_id;sensor_type;location;lat;lon;timestamp;P1;durP1;ratioP1;P2;durP2;ratioP2
42978;SDS011;28616;44.746;19.678;2023-04-15T00:00:27;13.40;;;6.90;;
42978;SDS011;28616;44.746;19.678;2023-04-15T00:02:53;43.58;;;12.30;;
42978;SDS011;28616;44.746;19.678;2023-04-15T00:05:19;17.42;;;8.15;;
42978;SDS011;28616;44.746;19.678;2023-04-15T00:07:46;20.10;;;6.93;;
42978;SDS011;28616;44.746;19.678;2023-04-15T00:10:12;41.75;;;19.20;;
42978;SDS011;28616;44.746;19.678;2023-04-15T00:12:41;26.77;;;9.55;;
42978;SDS011;28616;44.746;19.678;2023-04-15T00:15:07;22.42;;;10.10;;
42978;SDS011;28616;44.746;19.678;2023-04-15T00:17:34;26.95;;;8.93;;
42978;SDS011;28616;44.746;19.678;2023-04-15T00:20:02;23.92;;;9.52;;
42978;SDS011;28616;44.746;19.678;2023-04-15T00:22:30;26.05;;;10.02;;
42978;SDS011;28616;44.746;19.678;2023-04-15T00:24:56;23.58;;;11.95;;
42978;SDS011;28616;44.746;19.678;2023-04-15T00:27:22;23.67;;;9.93;;
42978;SDS011;28616;44.746;19.678;2023-04-15T00:29:48;34.97;;;13.85;;
42978;SDS011;28616;44.746;19.678;2023-04-15T00:32:14;42.97;;;17.85;;
42978;SDS011;28616;44.746;19.678;2023-04-15T00:34:40;35.58;;;16.63;;
42978;SDS011;28616;44.746;19.678;2023-04-15T00:37:06;45.65;;;19.65;;
42978;SDS011;28616;44.746;19.678;2023-04-15T00:39:31;47.38;;;19.13;;
42978;SDS011;28616;44.746;19.678;2023-04-15T00:41:58;107.55;;;36.83;;
42978;SDS011;28616;44.746;19.678;2023-04-15T00:44:24;60.78;;;23.80;;
42978;SDS011;28616;44.746;19.678;2023-04-15T00:46:50;44.95;;;17.35;;
42978;SDS011;28616;44.746;19.678;2023-04-15T00:49:16;35.85;;;15.18;;
42978;SDS011;28616;44.746;19.678;2023-04-15T00:51:44;35.85;;;17.27;;
42978;SDS011;28616;44.746;19.678;2023-04-15T00:54:10;36.85;;;17.70;;
42978;SDS011;28616;44.746;19.678;2023-04-15T00:56:37;37.42;;;16.38;;
42978;SDS011;28616;44.746;19.678;2023-04-15T00:59:06;32.38;;;15.02;;
42978;SDS011;28616;44.746;19.678;2023-04-15T01:01:36;31.02;;;14.43;;
42978;SDS011;28616;44.746;19.678;2023-04-15T01:04:02;26.88;;;10.88;;
42978;SDS011;28616;44.746;19.678;2023-04-15T01:06:30;46.45;;;19.58;;
42978;SDS011;28616;44.746;19.678;2023-04-15T01:08:56;63.67;;;21.30;;
42978;SDS011;28616;44.746;19.678;2023-04-15T01:11:23;35.60;;;13.73;;
42978;SDS011;28616;44.746;19.678;2023-04-15T01:13:52;30.65;;;13.98;;
42978;SDS011;28616;44.746;19.678;2023-04-15T01:16:20;33.45;;;14.52;;
42978;SDS011;28616;44.746;19.678;2023-04-15T01:18:46;43.45;;;15.43;;
42978;SDS011;28616;44.746;19.678;2023-04-15T01:21:13;43.55;;;16.95;;
42978;SDS011;28616;44.746;19.678;2023-04-15T01:23:38;39.95;;;17.02;;
42978;SDS011;28616;44.746;19.678;2023-04-15T01:26:05;54.65;;;20.55;;
42978;SDS011;28616;44.746;19.678;2023-04-15T01:28:33;53.15;;;19.30;;
42978;SDS011;28616;44.746;19.678;2023-04-15T01:33:37;69.80;;;24.30;;
42978;SDS011;28616;44.746;19.678;2023-04-15T01:36:04;49.80;;;21.80;;
42978;SDS011;28616;44.746;19.678;2023-04-15T01:38:32;47.50;;;18.17;;
42978;SDS011;28616;44.746;19.678;2023-04-15T01:40:58;108.80;;;31.63;;
42978;SDS011;28616;44.746;19.678;2023-04-15T01:43:27;59.92;;;21.52;;
42978;SDS011;28616;44.746;19.678;2023-04-15T01:45:53;77.28;;;24.00;;
42978;SDS011;28616;44.746;19.678;2023-04-15T01:48:20;68.32;;;23.35;;
42978;SDS011;28616;44.746;19.678;2023-04-15T01:50:47;70.15;;;22.40;;
42978;SDS011;28616;44.746;19.678;2023-04-15T01:53:13;103.03;;;30.50;;
42978;SDS011;28616;44.746;19.678;2023-04-15T01:55:39;92.68;;;29.70;;
42978;SDS011;28616;44.746;19.678;2023-04-15T01:58:05;96.88;;;32.53;;
42978;SDS011;28616;44.746;19.678;2023-04-15T02:00:31;89.22;;;31.60;;
42978;SDS011;28616;44.746;19.678;2023-04-15T02:02:57;67.40;;;27.35;;
42978;SDS011;28616;44.746;19.678;2023-04-15T02:05:23;66.05;;;25.92;;
42978;SDS011;28616;44.746;19.678;2023-04-15T02:07:50;54.03;;;21.95;;
42978;SDS011;28616;44.746;19.678;2023-04-15T02:10:16;40.92;;;17.00;;
42978;SDS011;28616;44.746;19.678;2023-04-15T02:12:42;36.95;;;14.90;;
42978;SDS011;28616;44.746;19.678;2023-04-15T02:15:08;26.55;;;11.70;;
42978;SDS011;28616;44.746;19.678;2023-04-15T02:17:34;30.90;;;12.18;;
42978;SDS011;28616;44.746;19.678;2023-04-15T02:20:02;30.15;;;14.73;;
42978;SDS011;28616;44.746;19.678;2023-04-15T02:22:32;30.57;;;14.00;;
42978;SDS011;28616;44.746;19.678;2023-04-15T02:24:59;25.83;;;11.90;;
42978;SDS011;28616;44.746;19.678;2023-04-15T02:27:24;60.63;;;20.38;;
42978;SDS011;28616;44.746;19.678;2023-04-15T02:29:52;65.10;;;21.88;;
42978;SDS011;28616;44.746;19.678;2023-04-15T02:32:17;36.28;;;12.85;;
42978;SDS011;28616;44.746;19.678;2023-04-15T02:34:44;30.13;;;10.32;;
42978;SDS011;28616;44.746;19.678;2023-04-15T02:37:10;19.95;;;8.70;;
42978;SDS011;28616;44.746;19.678;2023-04-15T02:39:37;27.17;;;10.63;;
42978;SDS011;28616;44.746;19.678;2023-04-15T02:42:03;27.42;;;12.20;;
42978;SDS011;28616;44.746;19.678;2023-04-15T02:44:30;25.40;;;12.27;;
42978;SDS011;28616;44.746;19.678;2023-04-15T02:46:57;34.08;;;13.43;;
42978;SDS011;28616;44.746;19.678;2023-04-15T02:49:23;33.47;;;14.77;;
42978;SDS011;28616;44.746;19.678;2023-04-15T02:51:49;33.40;;;14.82;;
42978;SDS011;28616;44.746;19.678;2023-04-15T02:54:16;45.38;;;20.17;;
42978;SDS011;28616;44.746;19.678;2023-04-15T02:56:46;57.08;;;21.58;;
42978;SDS011;28616;44.746;19.678;2023-04-15T02:59:12;39.28;;;14.88;;
42978;SDS011;28616;44.746;19.678;2023-04-15T03:01:38;57.00;;;20.15;;
42978;SDS011;28616;44.746;19.678;2023-04-15T03:04:04;53.92;;;20.98;;
42978;SDS011;28616;44.746;19.678;2023-04-15T03:06:31;29.38;;;12.63;;
42978;SDS011;28616;44.746;19.678;2023-04-15T03:08:57;28.45;;;12.00;;
42978;SDS011;28616;44.746;19.678;2023-04-15T03:11:24;31.75;;;13.70;;
42978;SDS011;28616;44.746;19.678;2023-04-15T03:13:51;36.10;;;16.95;;
42978;SDS011;28616;44.746;19.678;2023-04-15T03:16:17;33.88;;;13.50;;
42978;SDS011;28616;44.746;19.678;2023-04-15T03:18:43;36.17;;;12.13;;
42978;SDS011;28616;44.746;19.678;2023-04-15T03:21:09;67.97;;;24.80;;
42978;SDS011;28616;44.746;19.678;2023-04-15T03:23:34;42.67;;;18.63;;
42978;SDS011;28616;44.746;19.678;2023-04-15T03:26:01;39.97;;;16.10;;
42978;SDS011;28616;44.746;19.678;2023-04-15T03:28:27;49.25;;;16.35;;
42978;SDS011;28616;44.746;19.678;2023-04-15T03:30:54;42.20;;;15.45;;
42978;SDS011;28616;44.746;19.678;2023-04-15T03:33:20;37.05;;;14.60;;
42978;SDS011;28616;44.746;19.678;2023-04-15T03:35:45;42.25;;;14.65;;
42978;SDS011;28616;44.746;19.678;2023-04-15T03:38:11;40.38;;;13.27;;
42978;SDS011;28616;44.746;19.678;2023-04-15T03:40:37;29.05;;;10.43;;
42978;SDS011;28616;44.746;19.678;2023-04-15T03:43:06;26.75;;;8.90;;
42978;SDS011;28616;44.746;19.678;2023-04-15T03:45:32;20.15;;;7.95;;
42978;SDS011;28616;44.746;19.678;2023-04-15T03:47:58;18.15;;;8.45;;
42978;SDS011;28616;44.746;19.678;2023-04-15T03:50:23;23.77;;;8.68;;
42978;SDS011;28616;44.746;19.678;2023-04-15T03:52:49;21.08;;;7.75;;
42978;SDS011;28616;44.746;19.678;2023-04-15T03:55:15;16.55;;;7.13;;
42978;SDS011;28616;44.746;19.678;2023-04-15T03:57:41;17.80;;;7.25;;
42978;SDS011;28616;44.746;19.678;2023-04-15T04:00:07;27.55;;;11.32;;
42978;SDS011;28616;44.746;19.678;2023-04-15T04:02:34;29.15;;;12.50;;
42978;SDS011;28616;44.746;19.678;2023-04-15T04:05:00;30.40;;;10.38;;
42978;SDS011;28616;44.746;19.678;2023-04-15T04:07:26;21.13;;;8.45;;
42978;SDS011;28616;44.746;19.678;2023-04-15T04:09:52;36.03;;;13.48;;
42978;SDS011;28616;44.746;19.678;2023-04-15T04:12:18;24.27;;;9.45;;
42978;SDS011;28616;44.746;19.678;2023-04-15T04:14:43;24.20;;;8.65;;
42978;SDS011;28616;44.746;19.678;2023-04-15T04:17:09;22.98;;;6.70;;
42978;SDS011;28616;44.746;19.678;2023-04-15T04:19:35;11.10;;;5.30;;
42978;SDS011;28616;44.746;19.678;2023-04-15T04:22:01;21.55;;;6.93;;
42978;SDS011;28616;44.746;19.678;2023-04-15T04:24:27;17.20;;;6.43;;
42978;SDS011;28616;44.746;19.678;2023-04-15T04:26:53;12.52;;;6.47;;
42978;SDS011;28616;44.746;19.678;2023-04-15T04:29:18;15.10;;;7.07;;
42978;SDS011;28616;44.746;19.678;2023-04-15T04:31:44;14.38;;;6.72;;
42978;SDS011;28616;44.746;19.678;2023-04-15T04:34:12;10.30;;;5.50;;
42978;SDS011;28616;44.746;19.678;2023-04-15T04:36:38;9.88;;;4.70;;
42978;SDS011;28616;44.746;19.678;2023-04-15T04:39:04;9.45;;;3.85;;
42978;SDS011;28616;44.746;19.678;2023-04-15T04:41:30;10.38;;;4.80;;
42978;SDS011;28616;44.746;19.678;2023-04-15T04:43:56;8.43;;;4.63;;
42978;SDS011;28616;44.746;19.678;2023-04-15T04:46:22;11.57;;;4.60;;
42978;SDS011;28616;44.746;19.678;2023-04-15T04:48:48;13.48;;;5.15;;
42978;SDS011;28616;44.746;19.678;2023-04-15T04:51:13;13.32;;;5.60;;
42978;SDS011;28616;44.746;19.678;2023-04-15T04:53:40;19.85;;;7.72;;
42978;SDS011;28616;44.746;19.678;2023-04-15T04:56:07;19.33;;;8.57;;
42978;SDS011;28616;44.746;19.678;2023-04-15T04:58:32;22.92;;;10.18;;
42978;SDS011;28616;44.746;19.678;2023-04-15T05:00:58;20.10;;;9.65;;
42978;SDS011;28616;44.746;19.678;2023-04-15T05:03:24;18.50;;;6.18;;
42978;SDS011;28616;44.746;19.678;2023-04-15T05:05:51;9.30;;;5.00;;
42978;SDS011;28616;44.746;19.678;2023-04-15T05:08:17;9.40;;;5.70;;
42978;SDS011;28616;44.746;19.678;2023-04-15T05:10:43;13.48;;;4.65;;
42978;SDS011;28616;44.746;19.678;2023-04-15T05:13:08;12.13;;;5.05;;
42978;SDS011;28616;44.746;19.678;2023-04-15T05:15:35;10.27;;;4.63;;
42978;SDS011;28616;44.746;19.678;2023-04-15T05:18:03;7.75;;;4.35;;
42978;SDS011;28616;44.746;19.678;2023-04-15T05:20:29;10.38;;;5.07;;
42978;SDS011;28616;44.746;19.678;2023-04-15T05:22:56;14.10;;;5.15;;
42978;SDS011;28616;44.746;19.678;2023-04-15T05:25:22;15.32;;;6.97;;
42978;SDS011;28616;44.746;19.678;2023-04-15T05:27:47;15.40;;;6.25;;
42978;SDS011;28616;44.746;19.678;2023-04-15T05:30:16;13.48;;;6.72;;
42978;SDS011;28616;44.746;19.678;2023-04-15T05:32:42;22.85;;;13.63;;
42978;SDS011;28616;44.746;19.678;2023-04-15T05:35:08;18.85;;;13.50;;
42978;SDS011;28616;44.746;19.678;2023-04-15T05:37:36;16.50;;;9.18;;
42978;SDS011;28616;44.746;19.678;2023-04-15T05:40:02;19.90;;;8.90;;
42978;SDS011;28616;44.746;19.678;2023-04-15T05:42:28;25.60;;;9.38;;
42978;SDS011;28616;44.746;19.678;2023-04-15T05:44:54;19.40;;;9.65;;
42978;SDS011;28616;44.746;19.678;2023-04-15T05:47:20;23.05;;;9.77;;
42978;SDS011;28616;44.746;19.678;2023-04-15T05:49:46;22.83;;;10.35;;
42978;SDS011;28616;44.746;19.678;2023-04-15T05:52:11;28.20;;;13.07;;
42978;SDS011;28616;44.746;19.678;2023-04-15T05:54:37;19.23;;;8.77;;
42978;SDS011;28616;44.746;19.678;2023-04-15T05:57:03;19.63;;;9.35;;
42978;SDS011;28616;44.746;19.678;2023-04-15T05:59:29;40.60;;;16.20;;
42978;SDS011;28616;44.746;19.678;2023-04-15T06:01:55;34.42;;;12.93;;
42978;SDS011;28616;44.746;19.678;2023-04-15T06:04:21;47.17;;;19.70;;
42978;SDS011;28616;44.746;19.678;2023-04-15T06:06:48;62.50;;;22.13;;
42978;SDS011;28616;44.746;19.678;2023-04-15T06:09:17;16.92;;;6.72;;
42978;SDS011;28616;44.746;19.678;2023-04-15T06:11:42;45.05;;;15.68;;
42978;SDS011;28616;44.746;19.678;2023-04-15T06:14:08;13.05;;;5.38;;
42978;SDS011;28616;44.746;19.678;2023-04-15T06:16:34;22.13;;;8.68;;
42978;SDS011;28616;44.746;19.678;2023-04-15T06:19:00;30.45;;;12.38;;
42978;SDS011;28616;44.746;19.678;2023-04-15T06:21:27;28.80;;;11.45;;
42978;SDS011;28616;44.746;19.678;2023-04-15T06:23:53;24.10;;;10.07;;
42978;SDS011;28616;44.746;19.678;2023-04-15T06:26:20;19.15;;;7.70;;
42978;SDS011;28616;44.746;19.678;2023-04-15T06:28:46;14.05;;;5.20;;
42978;SDS011;28616;44.746;19.678;2023-04-15T06:31:12;19.10;;;8.13;;
42978;SDS011;28616;44.746;19.678;2023-04-15T06:33:38;37.05;;;13.05;;
42978;SDS011;28616;44.746;19.678;2023-04-15T06:36:04;17.58;;;8.25;;
42978;SDS011;28616;44.746;19.678;2023-04-15T06:38:30;7.50;;;4.85;;
42978;SDS011;28616;44.746;19.678;2023-04-15T06:40:56;32.63;;;14.02;;
42978;SDS011;28616;44.746;19.678;2023-04-15T06:43:22;17.60;;;7.50;;
42978;SDS011;28616;44.746;19.678;2023-04-15T06:45:48;11.43;;;7.13;;
42978;SDS011;28616;44.746;19.678;2023-04-15T06:48:14;8.13;;;3.53;;
42978;SDS011;28616;44.746;19.678;2023-04-15T06:50:44;12.57;;;4.32;;
42978;SDS011;28616;44.746;19.678;2023-04-15T06:53:09;12.00;;;4.57;;
42978;SDS011;28616;44.746;19.678;2023-04-15T06:55:35;12.48;;;5.68;;
42978;SDS011;28616;44.746;19.678;2023-04-15T06:58:02;11.48;;;5.57;;
42978;SDS011;28616;44.746;19.678;2023-04-15T07:00:37;11.70;;;5.07;;
42978;SDS011;28616;44.746;19.678;2023-04-15T07:03:05;6.72;;;3.60;;
42978;SDS011;28616;44.746;19.678;2023-04-15T07:05:35;8.98;;;4.70;;
42978;SDS011;28616;44.746;19.678;2023-04-15T07:08:01;6.30;;;3.20;;
42978;SDS011;28616;44.746;19.678;2023-04-15T07:10:26;10.18;;;4.82;;
42978;SDS011;28616;44.746;19.678;2023-04-15T07:12:52;11.75;;;4.90;;
42978;SDS011;28616;44.746;19.678;2023-04-15T07:15:21;6.20;;;3.25;;
42978;SDS011;28616;44.746;19.678;2023-04-15T07:17:50;12.23;;;5.82;;
42978;SDS011;28616;44.746;19.678;2023-04-15T07:20:16;7.18;;;3.72;;
42978;SDS011;28616;44.746;19.678;2023-04-15T07:22:45;5.18;;;2.65;;
42978;SDS011;28616;44.746;19.678;2023-04-15T07:25:11;10.52;;;4.88;;
42978;SDS011;28616;44.746;19.678;2023-04-15T07:27:39;31.38;;;10.93;;
42978;SDS011;28616;44.746;19.678;2023-04-15T07:30:08;155.27;;;45.83;;
42978;SDS011;28616;44.746;19.678;2023-04-15T07:32:35;7.95;;;3.72;;
42978;SDS011;28616;44.746;19.678;2023-04-15T07:35:04;19.15;;;7.45;;
42978;SDS011;28616;44.746;19.678;2023-04-15T07:37:36;7.05;;;2.72;;
42978;SDS011;28616;44.746;19.678;2023-04-15T07:40:07;6.40;;;2.30;;
42978;SDS011;28616;44.746;19.678;2023-04-15T07:42:38;11.70;;;4.85;;
42978;SDS011;28616;44.746;19.678;2023-04-15T07:45:05;12.95;;;5.53;;
42978;SDS011;28616;44.746;19.678;2023-04-15T07:47:31;11.38;;;5.70;;
42978;SDS011;28616;44.746;19.678;2023-04-15T07:49:57;7.35;;;3.53;;
42978;SDS011;28616;44.746;19.678;2023-04-15T07:52:26;9.80;;;4.32;;
42978;SDS011;28616;44.746;19.678;2023-04-15T07:54:52;5.47;;;2.78;;
42978;SDS011;28616;44.746;19.678;2023-04-15T07:57:18;3.38;;;2.22;;
42978;SDS011;28616;44.746;19.678;2023-04-15T07:59:44;4.45;;;2.28;;
42978;SDS011;28616;44.746;19.678;2023-04-15T08:02:11;3.38;;;1.70;;
42978;SDS011;28616;44.746;19.678;2023-04-15T08:04:43;4.22;;;2.33;;
42978;SDS011;28616;44.746;19.678;2023-04-15T08:17:48;2.33;;;1.38;;
42978;SDS011;28616;44.746;19.678;2023-04-15T08:20:14;3.53;;;1.80;;
42978;SDS011;28616;44.746;19.678;2023-04-15T08:22:40;4.50;;;1.85;;
42978;SDS011;28616;44.746;19.678;2023-04-15T08:25:06;4.25;;;1.50;;
42978;SDS011;28616;44.746;19.678;2023-04-15T08:27:36;16.00;;;4.10;;
42978;SDS011;28616;44.746;19.678;2023-04-15T08:30:01;3.20;;;1.98;;
42978;SDS011;28616;44.746;19.678;2023-04-15T08:32:28;7.90;;;4.57;;
42978;SDS011;28616;44.746;19.678;2023-04-15T08:34:54;4.82;;;3.15;;
42978;SDS011;28616;44.746;19.678;2023-04-15T08:37:20;19.10;;;9.63;;
42978;SDS011;28616;44.746;19.678;2023-04-15T08:39:47;3.25;;;2.20;;
42978;SDS011;28616;44.746;19.678;2023-04-15T08:42:15;12.57;;;7.82;;
42978;SDS011;28616;44.746;19.678;2023-04-15T08:44:43;5.03;;;2.97;;
42978;SDS011;28616;44.746;19.678;2023-04-15T08:47:13;4.88;;;3.00;;
42978;SDS011;28616;44.746;19.678;2023-04-15T08:49:44;2.90;;;1.92;;
42978;SDS011;28616;44.746;19.678;2023-04-15T08:52:12;2.78;;;1.98;;
42978;SDS011;28616;44.746;19.678;2023-04-15T08:54:38;3.38;;;2.10;;
42978;SDS011;28616;44.746;19.678;2023-04-15T08:57:04;3.95;;;1.95;;
42978;SDS011;28616;44.746;19.678;2023-04-15T08:59:31;4.15;;;2.00;;
42978;SDS011;28616;44.746;19.678;2023-04-15T09:01:57;3.80;;;2.15;;
42978;SDS011;28616;44.746;19.678;2023-04-15T09:04:23;3.50;;;2.08;;
42978;SDS011;28616;44.746;19.678;2023-04-15T09:06:49;6.82;;;4.00;;
42978;SDS011;28616;44.746;19.678;2023-04-15T09:09:16;7.22;;;2.85;;
42978;SDS011;28616;44.746;19.678;2023-04-15T09:11:43;2.88;;;1.50;;
42978;SDS011;28616;44.746;19.678;2023-04-15T09:14:08;1.58;;;1.20;;
42978;SDS011;28616;44.746;19.678;2023-04-15T09:19:26;116.78;;;36.17;;
42978;SDS011;28616;44.746;19.678;2023-04-15T09:21:55;2.72;;;2.20;;
42978;SDS011;28616;44.746;19.678;2023-04-15T09:24:22;2.85;;;1.83;;
42978;SDS011;28616;44.746;19.678;2023-04-15T09:26:53;5.60;;;3.45;;
42978;SDS011;28616;44.746;19.678;2023-04-15T09:29:23;8.77;;;3.85;;
42978;SDS011;28616;44.746;19.678;2023-04-15T09:31:51;2.83;;;1.95;;
42978;SDS011;28616;44.746;19.678;2023-04-15T09:34:17;3.70;;;2.00;;
42978;SDS011;28616;44.746;19.678;2023-04-15T09:39:12;2.15;;;1.50;;
42978;SDS011;28616;44.746;19.678;2023-04-15T09:41:38;2.45;;;1.50;;
42978;SDS011;28616;44.746;19.678;2023-04-15T09:44:05;2.50;;;1.65;;
42978;SDS011;28616;44.746;19.678;2023-04-15T09:46:41;3.08;;;1.50;;
42978;SDS011;28616;44.746;19.678;2023-04-15T09:49:08;1.52;;;1.20;;
42978;SDS011;28616;44.746;19.678;2023-04-15T09:51:34;2.10;;;1.42;;
42978;SDS011;28616;44.746;19.678;2023-04-15T09:54:01;1.27;;;1.00;;
42978;SDS011;28616;44.746;19.678;2023-04-15T09:56:34;1.23;;;1.13;;
42978;SDS011;28616;44.746;19.678;2023-04-15T09:59:02;2.33;;;1.58;;
42978;SDS011;28616;44.746;19.678;2023-04-15T10:01:29;2.33;;;1.10;;
42978;SDS011;28616;44.746;19.678;2023-04-15T10:03:56;1.65;;;1.40;;
42978;SDS011;28616;44.746;19.678;2023-04-15T10:06:25;4.32;;;2.10;;
42978;SDS011;28616;44.746;19.678;2023-04-15T10:08:51;2.17;;;1.73;;
42978;SDS011;28616;44.746;19.678;2023-04-15T10:11:18;5.63;;;2.75;;
42978;SDS011;28616;44.746;19.678;2023-04-15T10:13:45;6.32;;;3.65;;
42978;SDS011;28616;44.746;19.678;2023-04-15T10:16:14;3.55;;;1.63;;
42978;SDS011;28616;44.746;19.678;2023-04-15T10:18:44;2.33;;;1.88;;
42978;SDS011;28616;44.746;19.678;2023-04-15T10:21:12;7.30;;;4.90;;
42978;SDS011;28616;44.746;19.678;2023-04-15T10:23:42;3.35;;;2.00;;
42978;SDS011;28616;44.746;19.678;2023-04-15T10:26:11;5.20;;;2.53;;
42978;SDS011;28616;44.746;19.678;2023-04-15T10:28:39;2.65;;;2.10;;
42978;SDS011;28616;44.746;19.678;2023-04-15T10:31:05;4.22;;;2.20;;
42978;SDS011;28616;44.746;19.678;2023-04-15T10:33:32;3.05;;;2.13;;
42978;SDS011;28616;44.746;19.678;2023-04-15T10:36:01;2.45;;;1.45;;
42978;SDS011;28616;44.746;19.678;2023-04-15T10:38:34;2.75;;;2.00;;
42978;SDS011;28616;44.746;19.678;2023-04-15T10:46:16;2.97;;;2.03;;
42978;SDS011;28616;44.746;19.678;2023-04-15T10:48:51;1.98;;;1.60;;
42978;SDS011;28616;44.746;19.678;2023-04-15T10:51:28;5.20;;;2.10;;
42978;SDS011;28616;44.746;19.678;2023-04-15T10:53:55;2.97;;;2.30;;
42978;SDS011;28616;44.746;19.678;2023-04-15T10:56:23;3.00;;;2.10;;
42978;SDS011;28616;44.746;19.678;2023-04-15T10:58:49;4.22;;;2.80;;
42978;SDS011;28616;44.746;19.678;2023-04-15T11:01:15;3.13;;;2.20;;
42978;SDS011;28616;44.746;19.678;2023-04-15T11:03:43;2.30;;;1.90;;
42978;SDS011;28616;44.746;19.678;2023-04-15T11:06:09;1.67;;;1.58;;
42978;SDS011;28616;44.746;19.678;2023-04-15T11:14:33;4.70;;;3.13;;
42978;SDS011;28616;44.746;19.678;2023-04-15T11:17:03;2.55;;;1.83;;
42978;SDS011;28616;44.746;19.678;2023-04-15T11:19:36;4.47;;;2.78;;
42978;SDS011;28616;44.746;19.678;2023-04-15T11:22:07;2.65;;;1.40;;
42978;SDS011;28616;44.746;19.678;2023-04-15T11:24:34;6.10;;;3.88;;
42978;SDS011;28616;44.746;19.678;2023-04-15T11:27:01;8.52;;;4.03;;
42978;SDS011;28616;44.746;19.678;2023-04-15T11:29:30;3.42;;;2.45;;
42978;SDS011;28616;44.746;19.678;2023-04-15T11:32:05;1.83;;;1.73;;
42978;SDS011;28616;44.746;19.678;2023-04-15T11:34:36;2.92;;;2.20;;
42978;SDS011;28616;44.746;19.678;2023-04-15T11:37:05;2.65;;;2.22;;
42978;SDS011;28616;44.746;19.678;2023-04-15T11:39:31;2.58;;;1.83;;
42978;SDS011;28616;44.746;19.678;2023-04-15T11:41:57;2.28;;;2.08;;
42978;SDS011;28616;44.746;19.678;2023-04-15T11:44:23;2.33;;;1.83;;
42978;SDS011;28616;44.746;19.678;2023-04-15T11:46:49;3.53;;;1.38;;
42978;SDS011;28616;44.746;19.678;2023-04-15T11:49:25;4.10;;;2.40;;
42978;SDS011;28616;44.746;19.678;2023-04-15T11:51:51;1.83;;;0.82;;
42978;SDS011;28616;44.746;19.678;2023-04-15T11:54:18;1.50;;;0.50;;
42978;SDS011;28616;44.746;19.678;2023-04-15T11:56:48;0.95;;;0.55;;
42978;SDS011;28616;44.746;19.678;2023-04-15T11:59:15;3.22;;;0.55;;
42978;SDS011;28616;44.746;19.678;2023-04-15T12:01:41;0.80;;;0.55;;
42978;SDS011;28616;44.746;19.678;2023-04-15T12:04:11;1.38;;;0.85;;
42978;SDS011;28616;44.746;19.678;2023-04-15T12:06:37;1.85;;;0.82;;
42978;SDS011;28616;44.746;19.678;2023-04-15T12:11:43;0.90;;;0.50;;
42978;SDS011;28616;44.746;19.678;2023-04-15T12:14:12;2.00;;;0.80;;
42978;SDS011;28616;44.746;19.678;2023-04-15T12:16:47;1.17;;;0.80;;
42978;SDS011;28616;44.746;19.678;2023-04-15T12:19:21;1.17;;;0.50;;
42978;SDS011;28616;44.746;19.678;2023-04-15T12:21:49;2.85;;;0.68;;
42978;SDS011;28616;44.746;19.678;2023-04-15T12:24:18;1.85;;;1.15;;
42978;SDS011;28616;44.746;19.678;2023-04-15T12:26:47;2.95;;;1.10;;
42978;SDS011;28616;44.746;19.678;2023-04-15T12:29:17;3.08;;;1.15;;
42978;SDS011;28616;44.746;19.678;2023-04-15T12:31:51;2.38;;;0.70;;
42978;SDS011;28616;44.746;19.678;2023-04-15T12:34:28;2.30;;;0.80;;
42978;SDS011;28616;44.746;19.678;2023-04-15T12:36:57;1.50;;;0.77;;
42978;SDS011;28616;44.746;19.678;2023-04-15T12:39:26;5.90;;;3.38;;
42978;SDS011;28616;44.746;19.678;2023-04-15T12:41:55;7.32;;;3.45;;
42978;SDS011;28616;44.746;19.678;2023-04-15T12:44:23;4.47;;;2.15;;
42978;SDS011;28616;44.746;19.678;2023-04-15T12:46:50;1.73;;;0.88;;
42978;SDS011;28616;44.746;19.678;2023-04-15T12:49:17;1.15;;;0.85;;
42978;SDS011;28616;44.746;19.678;2023-04-15T12:51:45;2.50;;;0.80;;
42978;SDS011;28616;44.746;19.678;2023-04-15T12:54:13;1.40;;;1.00;;
42978;SDS011;28616;44.746;19.678;2023-04-15T12:56:40;2.55;;;1.25;;
42978;SDS011;28616;44.746;19.678;2023-04-15T12:59:06;3.60;;;1.40;;
42978;SDS011;28616;44.746;19.678;2023-04-15T13:01:32;2.88;;;1.40;;
42978;SDS011;28616;44.746;19.678;2023-04-15T13:03:58;3.53;;;1.00;;
42978;SDS011;28616;44.746;19.678;2023-04-15T13:06:24;2.10;;;1.08;;
42978;SDS011;28616;44.746;19.678;2023-04-15T13:08:49;3.90;;;1.60;;
42978;SDS011;28616;44.746;19.678;2023-04-15T13:11:15;2.83;;;1.10;;
42978;SDS011;28616;44.746;19.678;2023-04-15T13:13:41;1.42;;;0.85;;
42978;SDS011;28616;44.746;19.678;2023-04-15T13:16:07;1.40;;;1.00;;
42978;SDS011;28616;44.746;19.678;2023-04-15T13:18:33;3.90;;;1.05;;
42978;SDS011;28616;44.746;19.678;2023-04-15T13:20:59;3.53;;;0.60;;
42978;SDS011;28616;44.746;19.678;2023-04-15T13:23:26;1.60;;;0.80;;
42978;SDS011;28616;44.746;19.678;2023-04-15T13:25:51;2.97;;;0.77;;
42978;SDS011;28616;44.746;19.678;2023-04-15T13:28:18;1.08;;;0.70;;
42978;SDS011;28616;44.746;19.678;2023-04-15T13:30:44;3.15;;;1.30;;
42978;SDS011;28616;44.746;19.678;2023-04-15T13:33:11;7.70;;;2.92;;
42978;SDS011;28616;44.746;19.678;2023-04-15T13:35:36;4.15;;;2.35;;
42978;SDS011;28616;44.746;19.678;2023-04-15T13:38:03;12.55;;;5.88;;
42978;SDS011;28616;44.746;19.678;2023-04-15T13:40:29;3.97;;;1.90;;
42978;SDS011;28616;44.746;19.678;2023-04-15T13:42:55;1.65;;;0.90;;
42978;SDS011;28616;44.746;19.678;2023-04-15T13:45:23;3.83;;;1.27;;
42978;SDS011;28616;44.746;19.678;2023-04-15T13:47:49;3.05;;;1.00;;
42978;SDS011;28616;44.746;19.678;2023-04-15T13:50:14;2.10;;;0.98;;
42978;SDS011;28616;44.746;19.678;2023-04-15T13:52:40;3.63;;;1.55;;
42978;SDS011;28616;44.746;19.678;2023-04-15T13:55:06;6.28;;;3.10;;
42978;SDS011;28616;44.746;19.678;2023-04-15T13:57:32;3.05;;;1.95;;
42978;SDS011;28616;44.746;19.678;2023-04-15T13:59:58;4.88;;;2.75;;
42978;SDS011;28616;44.746;19.678;2023-04-15T14:02:24;11.95;;;4.93;;
42978;SDS011;28616;44.746;19.678;2023-04-15T14:04:50;7.15;;;2.88;;
42978;SDS011;28616;44.746;19.678;2023-04-15T14:07:15;4.05;;;1.88;;
42978;SDS011;28616;44.746;19.678;2023-04-15T14:09:42;6.35;;;1.98;;
42978;SDS011;28616;44.746;19.678;2023-04-15T14:12:09;5.47;;;2.53;;
42978;SDS011;28616;44.746;19.678;2023-04-15T14:14:35;3.30;;;1.60;;
42978;SDS011;28616;44.746;19.678;2023-04-15T14:17:01;2.95;;;1.33;;
42978;SDS011;28616;44.746;19.678;2023-04-15T14:19:29;2.90;;;1.65;;
42978;SDS011;28616;44.746;19.678;2023-04-15T14:21:55;24.65;;;9.73;;
42978;SDS011;28616;44.746;19.678;2023-04-15T14:24:21;7.70;;;3.10;;
42978;SDS011;28616;44.746;19.678;2023-04-15T14:26:47;3.35;;;1.27;;
42978;SDS011;28616;44.746;19.678;2023-04-15T14:29:13;2.85;;;1.52;;
42978;SDS011;28616;44.746;19.678;2023-04-15T14:31:39;2.60;;;1.42;;
42978;SDS011;28616;44.746;19.678;2023-04-15T14:34:05;1.88;;;1.20;;
42978;SDS011;28616;44.746;19.678;2023-04-15T14:36:31;1.52;;;1.00;;
42978;SDS011;28616;44.746;19.678;2023-04-15T14:38:57;2.42;;;1.40;;
42978;SDS011;28616;44.746;19.678;2023-04-15T14:41:23;4.03;;;2.58;;
42978;SDS011;28616;44.746;19.678;2023-04-15T14:43:49;7.65;;;2.88;;
42978;SDS011;28616;44.746;19.678;2023-04-15T14:46:14;1.58;;;0.85;;
42978;SDS011;28616;44.746;19.678;2023-04-15T14:48:41;2.42;;;1.08;;
42978;SDS011;28616;44.746;19.678;2023-04-15T14:51:06;2.58;;;1.20;;
42978;SDS011;28616;44.746;19.678;2023-04-15T14:53:32;2.00;;;1.20;;